sensor_id;sensor_type;location;lat;lon;timestamp;pressure;altitude;pressure_sealevel;temperature;humidity
73085;BME280;62974;49.460;10.892;2023-09-19T00:02:05;97303.66;;;17.13;100.00
73085;BME280;62974;49.460;10.892;2023-09-19T00:04:36;97294.75;;;16.96;100.00
73085;BME280;62974;49.460;10.892;2023-09-19T00:07:06;97305.25;;;16.87;100.00
73085;BME280;62974;49.460;10.892;2023-09-19T00:09:35;97304.84;;;17.22;100.00
73085;BME280;62974;49.460;10.892;2023-09-19T00:12:05;97306.28;;;17.30;100.00
73085;BME280;62974;49.460;10.892;2023-09-19T00:14:32;97302.22;;;17.32;100.00
73085;BME280;62974;49.460;10.892;2023-09-19T00:17:02;97311.13;;;17.28;100.00
73085;BME280;62974;49.460;10.892;2023-09-19T00:19:34;97313.63;;;16.86;100.00
73085;BME280;62974;49.460;10.892;2023-09-19T00:22:03;97307.25;;;17.19;100.00
73085;BME280;62974;49.460;10.892;2023-09-19T00:24:31;97317.97;;;17.09;100.00
73085;BME280;62974;49.460;10.892;2023-09-19T00:26:58;97320.44;;;17.10;100.00
73085;BME280;62974;49.460;10.892;2023-09-19T00:29:26;97321.97;;;16.79;100.00
73085;BME280;62974;49.460;10.892;2023-09-19T00:31:55;97329.97;;;16.69;100.00
73085;BME280;62974;49.460;10.892;2023-09-19T00:34:25;97336.09;;;16.81;100.00
73085;BME280;62974;49.460;10.892;2023-09-19T00:36:54;97336.47;;;17.12;100.00
73085;BME280;62974;49.460;10.892;2023-09-19T00:39:23;97338.16;;;17.18;100.00
73085;BME280;62974;49.460;10.892;2023-09-19T00:41:52;97327.56;;;17.16;100.00
73085;BME280;62974;49.460;10.892;2023-09-19T00:44:21;97328.34;;;17.12;100.00
73085;BME280;62974;49.460;10.892;2023-09-19T00:46:49;97330.16;;;17.06;100.00
73085;BME280;62974;49.460;10.892;2023-09-19T00:49:18;97330.72;;;17.08;100.00
73085;BME280;62974;49.460;10.892;2023-09-19T00:51:48;97330.41;;;17.05;100.00
73085;BME280;62974;49.460;10.892;2023-09-19T00:54:16;97338.31;;;17.06;100.00
73085;BME280;62974;49.460;10.892;2023-09-19T00:56:47;97338.53;;;17.05;100.00
73085;BME280;62974;49.460;10.892;2023-09-19T00:59:15;97336.66;;;17.05;100.00
73085;BME280;62974;49.460;10.892;2023-09-19T01:01:43;97346.31;;;16.96;100.00
73085;BME280;62974;49.460;10.892;2023-09-19T01:04:12;97346.31;;;16.96;100.00
73085;BME280;62974;49.460;10.892;2023-09-19T01:06:40;97339.69;;;16.87;100.00
73085;BME280;62974;49.460;10.892;2023-09-19T01:09:08;97350.16;;;17.00;100.00
73085;BME280;62974;49.460;10.892;2023-09-19T01:11:38;97346.00;;;16.92;100.00
73085;BME280;62974;49.460;10.892;2023-09-19T01:14:17;97347.94;;;16.97;100.00
73085;BME280;62974;49.460;10.892;2023-09-19T01:16:52;97345.00;;;16.99;100.00
73085;BME280;62974;49.460;10.892;2023-09-19T01:19:38;97355.25;;;16.97;100.00
73085;BME280;62974;49.460;10.892;2023-09-19T01:22:16;97347.41;;;16.95;100.00
73085;BME280;62974;49.460;10.892;2023-09-19T01:25:18;97352.56;;;16.97;100.00
73085;BME280;62974;49.460;10.892;2023-09-19T01:28:03;97351.16;;;16.94;100.00
73085;BME280;62974;49.460;10.892;2023-09-19T01:30:40;97349.78;;;16.92;100.00
73085;BME280;62974;49.460;10.892;2023-09-19T01:33:10;97357.03;;;16.86;100.00
73085;BME280;62974;49.460;10.892;2023-09-19T01:35:37;97365.81;;;16.93;100.00
73085;BME280;62974;49.460;10.892;2023-09-19T01:38:06;97355.53;;;16.95;100.00
73085;BME280;62974;49.460;10.892;2023-09-19T01:40:41;97354.63;;;16.89;100.00
73085;BME280;62974;49.460;10.892;2023-09-19T01:43:12;97359.56;;;16.92;100.00
73085;BME280;62974;49.460;10.892;2023-09-19T01:45:49;97357.59;;;16.88;100.00
73085;BME280;62974;49.460;10.892;2023-09-19T01:48:25;97367.50;;;16.77;100.00
73085;BME280;62974;49.460;10.892;2023-09-19T01:50:58;97360.81;;;16.85;100.00
73085;BME280;62974;49.460;10.892;2023-09-19T01:53:29;97359.22;;;16.89;100.00
73085;BME280;62974;49.460;10.892;2023-09-19T01:55:58;97363.66;;;16.95;100.00
73085;BME280;62974;49.460;10.892;2023-09-19T01:58:32;97366.38;;;16.57;100.00
73085;BME280;62974;49.460;10.892;2023-09-19T02:01:04;97365.91;;;16.81;100.00
73085;BME280;62974;49.460;10.892;2023-09-19T02:03:33;97371.84;;;16.78;100.00
73085;BME280;62974;49.460;10.892;2023-09-19T02:06:02;97371.56;;;16.58;100.00
73085;BME280;62974;49.460;10.892;2023-09-19T02:08:31;97375.72;;;16.82;100.00
73085;BME280;62974;49.460;10.892;2023-09-19T02:11:01;97376.75;;;16.60;100.00
73085;BME280;62974;49.460;10.892;2023-09-19T02:13:28;97385.59;;;16.22;100.00
73085;BME280;62974;49.460;10.892;2023-09-19T02:15:59;97385.69;;;16.43;100.00
73085;BME280;62974;49.460;10.892;2023-09-19T02:18:28;97381.47;;;16.53;100.00
73085;BME280;62974;49.460;10.892;2023-09-19T02:20:57;97388.94;;;16.45;100.00
73085;BME280;62974;49.460;10.892;2023-09-19T02:23:25;97390.00;;;16.44;100.00
73085;BME280;62974;49.460;10.892;2023-09-19T02:25:52;97391.75;;;16.51;100.00
73085;BME280;62974;49.460;10.892;2023-09-19T02:28:20;97405.63;;;16.37;100.00
73085;BME280;62974;49.460;10.892;2023-09-19T02:30:49;97403.84;;;16.43;100.00
73085;BME280;62974;49.460;10.892;2023-09-19T02:33:17;97406.56;;;16.60;100.00
73085;BME280;62974;49.460;10.892;2023-09-19T02:35:46;97405.88;;;16.53;100.00
73085;BME280;62974;49.460;10.892;2023-09-19T02:38:14;97408.09;;;16.56;100.00
73085;BME280;62974;49.460;10.892;2023-09-19T02:40:44;97400.53;;;16.41;100.00
73085;BME280;62974;49.460;10.892;2023-09-19T02:43:12;97407.47;;;16.32;100.00
73085;BME280;62974;49.460;10.892;2023-09-19T02:45:40;97407.78;;;16.35;100.00
73085;BME280;62974;49.460;10.892;2023-09-19T02:48:08;97408.75;;;16.46;100.00
73085;BME280;62974;49.460;10.892;2023-09-19T02:50:38;97409.63;;;16.02;100.00
73085;BME280;62974;49.460;10.892;2023-09-19T02:53:08;97419.19;;;16.04;100.00
73085;BME280;62974;49.460;10.892;2023-09-19T02:55:37;97413.19;;;16.19;100.00
73085;BME280;62974;49.460;10.892;2023-09-19T02:58:06;97419.19;;;16.04;100.00
73085;BME280;62974;49.460;10.892;2023-09-19T03:00:38;97413.09;;;16.14;100.00
73085;BME280;62974;49.460;10.892;2023-09-19T03:03:08;97418.34;;;16.20;100.00
73085;BME280;62974;49.460;10.892;2023-09-19T03:05:36;97421.06;;;16.20;100.00
73085;BME280;62974;49.460;10.892;2023-09-19T03:08:05;97426.56;;;16.25;100.00
73085;BME280;62974;49.460;10.892;2023-09-19T03:10:34;97431.03;;;16.31;100.00
73085;BME280;62974;49.460;10.892;2023-09-19T03:13:04;97432.78;;;16.09;100.00
73085;BME280;62974;49.460;10.892;2023-09-19T03:15:32;97434.59;;;16.20;100.00
73085;BME280;62974;49.460;10.892;2023-09-19T03:18:00;97431.66;;;16.22;100.00
73085;BME280;62974;49.460;10.892;2023-09-19T03:20:28;97440.03;;;16.20;100.00
73085;BME280;62974;49.460;10.892;2023-09-19T03:22:56;97428.03;;;16.33;100.00
73085;BME280;62974;49.460;10.892;2023-09-19T03:25:24;97439.56;;;16.40;100.00
73085;BME280;62974;49.460;10.892;2023-09-19T03:27:53;97435.78;;;16.41;100.00
73085;BME280;62974;49.460;10.892;2023-09-19T03:30:20;97447.09;;;16.21;100.00
73085;BME280;62974;49.460;10.892;2023-09-19T03:32:48;97446.84;;;16.23;100.00
73085;BME280;62974;49.460;10.892;2023-09-19T03:35:17;97445.78;;;16.40;100.00
73085;BME280;62974;49.460;10.892;2023-09-19T03:37:45;97452.28;;;16.23;100.00
73085;BME280;62974;49.460;10.892;2023-09-19T03:40:13;97449.66;;;16.28;100.00
73085;BME280;62974;49.460;10.892;2023-09-19T03:42:42;97442.16;;;16.18;100.00
73085;BME280;62974;49.460;10.892;2023-09-19T03:45:11;97443.66;;;16.26;100.00
73085;BME280;62974;49.460;10.892;2023-09-19T03:47:40;97437.91;;;16.39;100.00
73085;BME280;62974;49.460;10.892;2023-09-19T03:50:08;97444.97;;;16.23;100.00
73085;BME280;62974;49.460;10.892;2023-09-19T03:52:37;97448.41;;;16.19;100.00
73085;BME280;62974;49.460;10.892;2023-09-19T03:55:05;97450.28;;;16.18;100.00
73085;BME280;62974;49.460;10.892;2023-09-19T03:57:33;97453.13;;;15.95;100.00
73085;BME280;62974;49.460;10.892;2023-09-19T04:00:03;97453.25;;;16.00;100.00
73085;BME280;62974;49.460;10.892;2023-09-19T04:02:33;97454.19;;;15.94;100.00
73085;BME280;62974;49.460;10.892;2023-09-19T04:05:01;97451.41;;;16.06;100.00
73085;BME280;62974;49.460;10.892;2023-09-19T04:07:28;97450.28;;;16.18;100.00
73085;BME280;62974;49.460;10.892;2023-09-19T04:09:56;97453.31;;;16.05;100.00
73085;BME280;62974;49.460;10.892;2023-09-19T04:12:24;97459.16;;;16.14;100.00
73085;BME280;62974;49.460;10.892;2023-09-19T04:14:51;97462.19;;;16.17;100.00
73085;BME280;62974;49.460;10.892;2023-09-19T04:17:19;97465.16;;;16.16;100.00
73085;BME280;62974;49.460;10.892;2023-09-19T04:19:48;97470.59;;;16.32;100.00
73085;BME280;62974;49.460;10.892;2023-09-19T04:22:15;97466.69;;;16.40;100.00
73085;BME280;62974;49.460;10.892;2023-09-19T04:24:43;97468.78;;;16.38;100.00
73085;BME280;62974;49.460;10.892;2023-09-19T04:27:11;97472.97;;;16.45;100.00
73085;BME280;62974;49.460;10.892;2023-09-19T04:29:41;97472.88;;;16.40;100.00
73085;BME280;62974;49.460;10.892;2023-09-19T04:32:08;97474.63;;;16.47;100.00
73085;BME280;62974;49.460;10.892;2023-09-19T04:34:36;97477.16;;;16.36;100.00
73085;BME280;62974;49.460;10.892;2023-09-19T04:37:06;97478.66;;;16.27;100.00
73085;BME280;62974;49.460;10.892;2023-09-19T04:39:33;97481.47;;;16.04;100.00
73085;BME280;62974;49.460;10.892;2023-09-19T04:42:01;97482.50;;;16.31;100.00
73085;BME280;62974;49.460;10.892;2023-09-19T04:44:29;97476.91;;;16.38;100.00
73085;BME280;62974;49.460;10.892;2023-09-19T04:46:57;97485.72;;;16.45;100.00
73085;BME280;62974;49.460;10.892;2023-09-19T04:49:25;97489.56;;;16.49;100.00
73085;BME280;62974;49.460;10.892;2023-09-19T04:51:53;97484.75;;;16.51;100.00
73085;BME280;62974;49.460;10.892;2023-09-19T04:54:23;97489.06;;;16.52;100.00
73085;BME280;62974;49.460;10.892;2023-09-19T04:56:51;97489.00;;;16.47;100.00
73085;BME280;62974;49.460;10.892;2023-09-19T04:59:18;97490.16;;;16.51;100.00
73085;BME280;62974;49.460;10.892;2023-09-19T05:01:46;97497.38;;;16.45;100.00
73085;BME280;62974;49.460;10.892;2023-09-19T05:04:14;97496.50;;;16.40;100.00
73085;BME280;62974;49.460;10.892;2023-09-19T05:06:41;97499.00;;;16.30;100.00
73085;BME280;62974;49.460;10.892;2023-09-19T05:09:12;97501.16;;;16.00;100.00
73085;BME280;62974;49.460;10.892;2023-09-19T05:11:41;97490.78;;;16.08;100.00
73085;BME280;62974;49.460;10.892;2023-09-19T05:14:09;97503.25;;;16.26;100.00
73085;BME280;62974;49.460;10.892;2023-09-19T05:16:38;97489.47;;;16.27;100.00
73085;BME280;62974;49.460;10.892;2023-09-19T05:19:07;97499.84;;;16.30;100.00
73085;BME280;62974;49.460;10.892;2023-09-19T05:21:38;97489.31;;;16.34;100.00
73085;BME280;62974;49.460;10.892;2023-09-19T05:24:06;97505.41;;;16.24;100.00
73085;BME280;62974;49.460;10.892;2023-09-19T05:26:36;97499.25;;;16.45;100.00
73085;BME280;62974;49.460;10.892;2023-09-19T05:29:05;97513.00;;;16.10;100.00
73085;BME280;62974;49.460;10.892;2023-09-19T05:31:34;97514.94;;;16.26;100.00
73085;BME280;62974;49.460;10.892;2023-09-19T05:34:03;97512.81;;;16.45;100.00
73085;BME280;62974;49.460;10.892;2023-09-19T05:36:30;97512.16;;;16.38;100.00
73085;BME280;62974;49.460;10.892;2023-09-19T05:38:58;97517.47;;;16.33;100.00
73085;BME280;62974;49.460;10.892;2023-09-19T05:41:25;97521.84;;;16.34;100.00
73085;BME280;62974;49.460;10.892;2023-09-19T05:43:53;97531.53;;;16.30;100.00
73085;BME280;62974;49.460;10.892;2023-09-19T05:46:22;97530.97;;;16.00;100.00
73085;BME280;62974;49.460;10.892;2023-09-19T05:48:50;97537.19;;;16.28;100.00
73085;BME280;62974;49.460;10.892;2023-09-19T05:51:17;97535.00;;;16.42;100.00
73085;BME280;62974;49.460;10.892;2023-09-19T05:53:48;97541.16;;;16.37;100.00
73085;BME280;62974;49.460;10.892;2023-09-19T05:56:16;97536.63;;;16.26;100.00
73085;BME280;62974;49.460;10.892;2023-09-19T05:58:45;97540.53;;;16.19;100.00
73085;BME280;62974;49.460;10.892;2023-09-19T06:01:13;97548.41;;;16.20;100.00
73085;BME280;62974;49.460;10.892;2023-09-19T06:03:43;97550.94;;;16.38;100.00
73085;BME280;62974;49.460;10.892;2023-09-19T06:06:10;97559.59;;;16.24;100.00
73085;BME280;62974;49.460;10.892;2023-09-19T06:08:38;97563.13;;;16.24;100.00
73085;BME280;62974;49.460;10.892;2023-09-19T06:11:05;97565.94;;;16.29;100.00
73085;BME280;62974;49.460;10.892;2023-09-19T06:13:35;97564.81;;;16.14;100.00
73085;BME280;62974;49.460;10.892;2023-09-19T06:16:06;97564.63;;;16.04;100.00
73085;BME280;62974;49.460;10.892;2023-09-19T06:18:33;97569.50;;;15.90;100.00
73085;BME280;62974;49.460;10.892;2023-09-19T06:21:02;97571.09;;;16.03;100.00
73085;BME280;62974;49.460;10.892;2023-09-19T06:23:33;97575.31;;;16.10;100.00
73085;BME280;62974;49.460;10.892;2023-09-19T06:26:01;97577.63;;;15.90;100.00
73085;BME280;62974;49.460;10.892;2023-09-19T06:28:29;97570.28;;;16.02;100.00
73085;BME280;62974;49.460;10.892;2023-09-19T06:30:57;97582.09;;;15.96;100.00
73085;BME280;62974;49.460;10.892;2023-09-19T06:33:25;97574.50;;;16.10;100.00
73085;BME280;62974;49.460;10.892;2023-09-19T06:35:53;97586.59;;;16.19;100.00
73085;BME280;62974;49.460;10.892;2023-09-19T06:38:26;97582.91;;;16.25;100.00
73085;BME280;62974;49.460;10.892;2023-09-19T06:40:54;97592.13;;;16.24;100.00
73085;BME280;62974;49.460;10.892;2023-09-19T06:43:24;97587.13;;;16.04;100.00
73085;BME280;62974;49.460;10.892;2023-09-19T06:45:51;97594.06;;;16.12;100.00
73085;BME280;62974;49.460;10.892;2023-09-19T06:48:21;97596.41;;;16.08;100.00
73085;BME280;62974;49.460;10.892;2023-09-19T06:50:50;97593.34;;;16.05;100.00
73085;BME280;62974;49.460;10.892;2023-09-19T06:53:18;97610.53;;;16.10;100.00
73085;BME280;62974;49.460;10.892;2023-09-19T06:55:47;97607.59;;;16.12;100.00
73085;BME280;62974;49.460;10.892;2023-09-19T06:58:14;97599.66;;;16.22;100.00
73085;BME280;62974;49.460;10.892;2023-09-19T07:00:43;97607.41;;;16.30;100.00
73085;BME280;62974;49.460;10.892;2023-09-19T07:03:11;97610.00;;;16.25;100.00
73085;BME280;62974;49.460;10.892;2023-09-19T07:05:41;97614.81;;;16.34;100.00
73085;BME280;62974;49.460;10.892;2023-09-19T07:08:10;97614.22;;;16.32;100.00
73085;BME280;62974;49.460;10.892;2023-09-19T07:10:39;97618.91;;;16.37;100.00
73085;BME280;62974;49.460;10.892;2023-09-19T07:13:09;97625.22;;;16.26;100.00
73085;BME280;62974;49.460;10.892;2023-09-19T07:15:38;97617.03;;;16.37;100.00
73085;BME280;62974;49.460;10.892;2023-09-19T07:18:13;97612.78;;;16.41;100.00
73085;BME280;62974;49.460;10.892;2023-09-19T07:20:43;97611.88;;;16.36;99.23
73085;BME280;62974;49.460;10.892;2023-09-19T07:23:15;97620.47;;;16.33;96.30
73085;BME280;62974;49.460;10.892;2023-09-19T07:25:44;97617.03;;;16.37;94.63
73085;BME280;62974;49.460;10.892;2023-09-19T07:28:14;97630.34;;;16.39;92.77
73085;BME280;62974;49.460;10.892;2023-09-19T07:30:41;97636.00;;;16.37;96.31
73085;BME280;62974;49.460;10.892;2023-09-19T07:33:09;97630.09;;;16.40;94.93
73085;BME280;62974;49.460;10.892;2023-09-19T07:35:38;97632.53;;;16.54;96.44
73085;BME280;62974;49.460;10.892;2023-09-19T07:38:07;97636.22;;;16.48;94.08
73085;BME280;62974;49.460;10.892;2023-09-19T07:40:35;97628.56;;;16.44;91.73
73085;BME280;62974;49.460;10.892;2023-09-19T07:43:03;97633.25;;;16.49;91.03
73085;BME280;62974;49.460;10.892;2023-09-19T07:45:32;97639.47;;;16.61;94.52
73085;BME280;62974;49.460;10.892;2023-09-19T07:48:00;97634.66;;;16.63;93.74
73085;BME280;62974;49.460;10.892;2023-09-19T07:50:33;97635.22;;;16.65;91.78
73085;BME280;62974;49.460;10.892;2023-09-19T07:53:03;97635.53;;;16.69;90.29
73085;BME280;62974;49.460;10.892;2023-09-19T07:55:31;97640.69;;;16.82;92.62
73085;BME280;62974;49.460;10.892;2023-09-19T07:58:00;97644.72;;;16.96;92.95
73085;BME280;62974;49.460;10.892;2023-09-19T08:00:30;97643.81;;;16.90;93.42
73085;BME280;62974;49.460;10.892;2023-09-19T08:03:00;97640.50;;;16.88;93.35
73085;BME280;62974;49.460;10.892;2023-09-19T08:05:38;97655.16;;;16.87;95.33
73085;BME280;62974;49.460;10.892;2023-09-19T08:08:07;97653.56;;;16.75;92.84
73085;BME280;62974;49.460;10.892;2023-09-19T08:10:35;97656.41;;;16.68;92.48
73085;BME280;62974;49.460;10.892;2023-09-19T08:13:06;97666.81;;;16.71;95.93
73085;BME280;62974;49.460;10.892;2023-09-19T08:15:43;97667.84;;;16.70;96.92
73085;BME280;62974;49.460;10.892;2023-09-19T08:18:13;97665.66;;;16.84;95.47
73085;BME280;62974;49.460;10.892;2023-09-19T08:20:41;97675.44;;;16.85;93.88
73085;BME280;62974;49.460;10.892;2023-09-19T08:23:12;97684.19;;;16.87;91.95
73085;BME280;62974;49.460;10.892;2023-09-19T08:25:40;97683.44;;;16.92;93.24
73085;BME280;62974;49.460;10.892;2023-09-19T08:28:08;97670.94;;;16.90;91.38
73085;BME280;62974;49.460;10.892;2023-09-19T08:30:38;97677.25;;;16.96;92.32
73085;BME280;62974;49.460;10.892;2023-09-19T08:33:07;97677.38;;;17.01;91.39
73085;BME280;62974;49.460;10.892;2023-09-19T08:35:36;97677.97;;;17.03;89.64
73085;BME280;62974;49.460;10.892;2023-09-19T08:38:04;97677.63;;;17.16;92.27
73085;BME280;62974;49.460;10.892;2023-09-19T08:40:32;97686.09;;;17.20;92.69
73085;BME280;62974;49.460;10.892;2023-09-19T08:43:00;97682.31;;;17.21;90.08
73085;BME280;62974;49.460;10.892;2023-09-19T08:45:28;97672.72;;;17.30;88.15
73085;BME280;62974;49.460;10.892;2023-09-19T08:48:02;97688.81;;;17.36;91.96
73085;BME280;62974;49.460;10.892;2023-09-19T08:50:43;97691.63;;;17.42;89.94
73085;BME280;62974;49.460;10.892;2023-09-19T08:53:21;97695.28;;;17.47;92.00
73085;BME280;62974;49.460;10.892;2023-09-19T08:55:51;97691.78;;;17.52;89.69
73085;BME280;62974;49.460;10.892;2023-09-19T08:58:21;97698.03;;;17.52;89.34
73085;BME280;62974;49.460;10.892;2023-09-19T09:00:53;97696.84;;;17.43;87.17
73085;BME280;62974;49.460;10.892;2023-09-19T09:03:22;97704.47;;;17.46;88.19
73085;BME280;62974;49.460;10.892;2023-09-19T09:05:52;97704.22;;;17.48;87.39
73085;BME280;62974;49.460;10.892;2023-09-19T09:08:20;97716.41;;;17.45;86.68
73085;BME280;62974;49.460;10.892;2023-09-19T09:10:49;97706.22;;;17.35;82.93
73085;BME280;62974;49.460;10.892;2023-09-19T09:13:17;97708.63;;;17.20;82.83
73085;BME280;62974;49.460;10.892;2023-09-19T09:15:45;97719.31;;;17.10;84.51
73085;BME280;62974;49.460;10.892;2023-09-19T09:18:13;97722.53;;;17.07;84.58
73085;BME280;62974;49.460;10.892;2023-09-19T09:20:41;97723.59;;;17.06;84.14
73085;BME280;62974;49.460;10.892;2023-09-19T09:23:13;97719.31;;;17.10;82.94
73085;BME280;62974;49.460;10.892;2023-09-19T09:25:48;97724.47;;;17.23;82.92
73085;BME280;62974;49.460;10.892;2023-09-19T09:28:22;97726.81;;;17.20;82.95
73085;BME280;62974;49.460;10.892;2023-09-19T09:30:50;97731.25;;;17.09;84.34
73085;BME280;62974;49.460;10.892;2023-09-19T09:33:18;97740.16;;;17.21;87.18
73085;BME280;62974;49.460;10.892;2023-09-19T09:35:50;97736.59;;;17.21;86.93
73085;BME280;62974;49.460;10.892;2023-09-19T09:38:25;97730.84;;;17.17;84.47
73085;BME280;62974;49.460;10.892;2023-09-19T09:41:00;97726.34;;;17.23;84.36
73085;BME280;62974;49.460;10.892;2023-09-19T09:43:34;97725.41;;;17.17;85.24
73085;BME280;62974;49.460;10.892;2023-09-19T09:46:14;97728.31;;;17.27;84.85
73085;BME280;62974;49.460;10.892;2023-09-19T09:49:00;97719.03;;;17.40;83.99
73085;BME280;62974;49.460;10.892;2023-09-19T09:51:46;97725.03;;;17.25;84.00
73085;BME280;62974;49.460;10.892;2023-09-19T09:54:27;97726.53;;;17.50;85.62
73085;BME280;62974;49.460;10.892;2023-09-19T09:57:01;97718.56;;;17.43;83.85
73085;BME280;62974;49.460;10.892;2023-09-19T09:59:50;97720.44;;;17.93;84.83
73085;BME280;62974;49.460;10.892;2023-09-19T10:02:20;97713.91;;;18.10;82.46
73085;BME280;62974;49.460;10.892;2023-09-19T10:04:52;97716.88;;;18.09;82.54
73085;BME280;62974;49.460;10.892;2023-09-19T10:07:26;97716.47;;;18.39;81.07
73085;BME280;62974;49.460;10.892;2023-09-19T10:10:04;97716.53;;;18.22;82.74
73085;BME280;62974;49.460;10.892;2023-09-19T10:12:42;97713.06;;;18.26;80.21
73085;BME280;62974;49.460;10.892;2023-09-19T10:15:12;97714.88;;;18.21;81.63
73085;BME280;62974;49.460;10.892;2023-09-19T10:17:43;97723.16;;;17.93;83.69
73085;BME280;62974;49.460;10.892;2023-09-19T10:20:12;97721.25;;;17.93;83.34
73085;BME280;62974;49.460;10.892;2023-09-19T10:23:00;97710.13;;;18.11;79.29
73085;BME280;62974;49.460;10.892;2023-09-19T10:25:29;97707.78;;;17.81;79.48
73085;BME280;62974;49.460;10.892;2023-09-19T10:28:00;97703.09;;;17.77;80.20
73085;BME280;62974;49.460;10.892;2023-09-19T10:30:31;97708.38;;;17.67;81.34
73085;BME280;62974;49.460;10.892;2023-09-19T10:33:02;97709.34;;;17.77;81.73
73085;BME280;62974;49.460;10.892;2023-09-19T10:35:32;97718.06;;;17.79;80.88
73085;BME280;62974;49.460;10.892;2023-09-19T10:38:01;97715.09;;;17.98;81.44
73085;BME280;62974;49.460;10.892;2023-09-19T10:40:32;97702.97;;;18.05;78.61
73085;BME280;62974;49.460;10.892;2023-09-19T10:43:02;97710.84;;;18.45;78.46
73085;BME280;62974;49.460;10.892;2023-09-19T10:45:32;97698.88;;;18.90;76.94
73085;BME280;62974;49.460;10.892;2023-09-19T10:48:00;97701.09;;;18.93;75.68
73085;BME280;62974;49.460;10.892;2023-09-19T10:50:32;97709.38;;;19.03;74.70
73085;BME280;62974;49.460;10.892;2023-09-19T10:53:03;97713.88;;;18.92;76.17
73085;BME280;62974;49.460;10.892;2023-09-19T10:55:36;97727.44;;;18.65;77.48
73085;BME280;62974;49.460;10.892;2023-09-19T10:58:05;97724.72;;;19.14;78.57
73085;BME280;62974;49.460;10.892;2023-09-19T11:00:51;97728.09;;;18.99;76.75
73085;BME280;62974;49.460;10.892;2023-09-19T11:03:21;97724.25;;;19.22;77.73
73085;BME280;62974;49.460;10.892;2023-09-19T11:06:09;97731.03;;;18.93;79.00
73085;BME280;62974;49.460;10.892;2023-09-19T11:08:56;97727.63;;;18.81;76.48
73085;BME280;62974;49.460;10.892;2023-09-19T11:11:41;97720.97;;;18.71;74.98
73085;BME280;62974;49.460;10.892;2023-09-19T11:14:29;97722.31;;;18.91;74.86
73085;BME280;62974;49.460;10.892;2023-09-19T11:17:31;97718.69;;;18.63;76.03
73085;BME280;62974;49.460;10.892;2023-09-19T11:20:19;97726.13;;;18.51;76.32
73085;BME280;62974;49.460;10.892;2023-09-19T11:23:18;97729.75;;;18.35;77.05
73085;BME280;62974;49.460;10.892;2023-09-19T11:25:49;97727.91;;;18.19;77.91
73085;BME280;62974;49.460;10.892;2023-09-19T11:28:33;97714.25;;;17.97;76.65
73085;BME280;62974;49.460;10.892;2023-09-19T11:34:44;97719.50;;;18.04;76.33
73085;BME280;62974;49.460;10.892;2023-09-19T11:40:45;97722.69;;;18.17;75.71
73085;BME280;62974;49.460;10.892;2023-09-19T11:43:28;97706.22;;;18.46;74.28
73085;BME280;62974;49.460;10.892;2023-09-19T11:46:06;97714.84;;;18.59;73.88
73085;BME280;62974;49.460;10.892;2023-09-19T11:48:35;97700.75;;;18.62;71.47
73085;BME280;62974;49.460;10.892;2023-09-19T11:51:14;97698.66;;;18.96;73.11
73085;BME280;62974;49.460;10.892;2023-09-19T11:53:50;97695.78;;;18.81;68.61
73085;BME280;62974;49.460;10.892;2023-09-19T11:56:20;97696.97;;;19.17;71.41
73085;BME280;62974;49.460;10.892;2023-09-19T11:58:49;97689.88;;;19.43;71.07
73085;BME280;62974;49.460;10.892;2023-09-19T12:01:29;97698.19;;;19.31;69.19
73085;BME280;62974;49.460;10.892;2023-09-19T12:04:00;97682.97;;;19.62;65.71
73085;BME280;62974;49.460;10.892;2023-09-19T12:06:31;97699.97;;;19.74;66.55
73085;BME280;62974;49.460;10.892;2023-09-19T12:08:59;97690.25;;;19.24;66.22
73085;BME280;62974;49.460;10.892;2023-09-19T12:11:30;97691.16;;;19.62;67.02
73085;BME280;62974;49.460;10.892;2023-09-19T12:14:01;97689.13;;;19.20;66.63
73085;BME280;62974;49.460;10.892;2023-09-19T12:16:32;97690.31;;;19.03;67.27
73085;BME280;62974;49.460;10.892;2023-09-19T12:19:19;97701.53;;;18.85;67.64
73085;BME280;62974;49.460;10.892;2023-09-19T12:21:55;97684.75;;;19.19;66.98
73085;BME280;62974;49.460;10.892;2023-09-19T12:24:25;97695.00;;;19.39;66.37
73085;BME280;62974;49.460;10.892;2023-09-19T12:27:00;97695.47;;;19.58;67.15
73085;BME280;62974;49.460;10.892;2023-09-19T12:29:31;97695.56;;;19.41;67.21
73085;BME280;62974;49.460;10.892;2023-09-19T12:32:04;97690.44;;;19.45;65.11
73085;BME280;62974;49.460;10.892;2023-09-19T12:34:33;97686.19;;;19.54;67.58
73085;BME280;62974;49.460;10.892;2023-09-19T12:37:06;97688.13;;;19.58;67.46
73085;BME280;62974;49.460;10.892;2023-09-19T12:39:39;97690.31;;;19.61;67.44
73085;BME280;62974;49.460;10.892;2023-09-19T12:42:10;97682.31;;;19.50;64.01
73085;BME280;62974;49.460;10.892;2023-09-19T12:44:41;97691.66;;;19.32;64.56
73085;BME280;62974;49.460;10.892;2023-09-19T12:47:13;97686.66;;;19.46;66.05
73085;BME280;62974;49.460;10.892;2023-09-19T12:50:08;97682.44;;;19.65;65.44
73085;BME280;62974;49.460;10.892;2023-09-19T12:52:42;97682.16;;;19.61;65.87
73085;BME280;62974;49.460;10.892;2023-09-19T12:55:24;97687.94;;;19.70;66.07
73085;BME280;62974;49.460;10.892;2023-09-19T12:58:02;97675.69;;;19.73;65.68
73085;BME280;62974;49.460;10.892;2023-09-19T13:00:36;97677.03;;;19.70;64.41
73085;BME280;62974;49.460;10.892;2023-09-19T13:03:17;97681.38;;;19.71;63.41
73085;BME280;62974;49.460;10.892;2023-09-19T13:05:50;97674.38;;;19.80;65.32
73085;BME280;62974;49.460;10.892;2023-09-19T13:08:20;97680.88;;;19.79;65.46
73085;BME280;62974;49.460;10.892;2023-09-19T13:11:05;97676.50;;;19.73;63.21
73085;BME280;62974;49.460;10.892;2023-09-19T13:13:37;97684.28;;;19.96;65.52